Time;durP1;ratioP1;P1;durP2;ratioP2;P2;SDS_P1;SDS_P2;PMS_P1;PMS_P2;Temp;Humidity;BMP_temperature;BMP_pressure;BME280_temperature;BME280_humidity;BME280_pressure;Samples;Min_cycle;Max_cycle;Signal;HPM_P1;HPM_P2
2023/08/04 00:00:09;;;;;;;;;;;;;;;14.18;100.00;101167.41;5055217;28;20039;-79
2023/08/04 00:02:34;;;;;;;;;;;;;;;14.16;100.00;101170.22;5072672;28;19923;-80
2023/08/04 00:04:59;;;;;;;;;;;;;;;14.16;100.00;101172.06;5072859;28;19921;-80
2023/08/04 00:07:24;;;;;;;;;;;;;;;14.15;100.00;101165.03;5054722;28;20016;-79
2023/08/04 00:09:50;;;;;;;;;;;;;;;14.15;100.00;101168.53;5054690;28;19931;-80
2023/08/04 00:12:15;;;;;;;;;;;;;;;14.14;100.00;101172.22;5072673;28;20368;-79
2023/08/04 00:14:40;;;;;;;;;;;;;;;14.14;100.00;101176.72;5054366;28;20327;-79
2023/08/04 00:17:05;;;;;;;;;;;;;;;14.13;100.00;101167.88;5072732;28;20024;-79
2023/08/04 00:19:31;;;;;;;;;;;;;;;14.14;100.00;101179.41;5054661;28;20087;-80
2023/08/04 00:21:56;;;;;;;;;;;;;;;14.11;100.00;101175.22;5054743;28;19939;-80
2023/08/04 00:24:21;;;;;;;;;;;;;;;14.08;100.00;101179.03;5073091;28;19927;-83
2023/08/04 00:26:46;;;;;;;;;;;;;;;14.06;100.00;101175.69;5073780;28;19921;-82
2023/08/04 00:29:12;;;;;;;;;;;;;;;14.05;100.00;101171.31;5074140;28;19927;-83
2023/08/04 00:31:37;;;;;;;;;;;;;;;14.06;100.00;101175.69;5073857;28;19962;-82
2023/08/04 00:34:02;;;;;;;;;;;;;;;14.09;100.00;101174.50;5074224;28;19921;-82
2023/08/04 00:36:27;;;;;;;;;;;;;;;14.10;100.00;101177.03;5074106;28;19921;-83
2023/08/04 00:38:53;;;;;;;;;;;;;;;14.13;100.00;101177.75;5073712;28;19924;-82
2023/08/04 00:41:18;;;;;;;;;;;;;;;14.16;100.00;101172.06;5073835;28;19928;-81
2023/08/04 00:43:43;;;;;;;;;;;;;;;14.18;100.00;101175.44;5073787;28;19923;-82
2023/08/04 00:46:08;;;;;;;;;;;;;;;14.22;100.00;101168.78;5073730;28;20380;-82
2023/08/04 00:48:35;;;;;;;;;;;;;;;14.25;100.00;101169.28;5073764;28;20402;-83
2023/08/04 00:51:01;;;;;;;;;;;;;;;14.26;100.00;101170.97;5073666;28;19920;-82
2023/08/04 00:53:26;;;;;;;;;;;;;;;14.26;100.00;101170.97;5073371;28;19931;-82
2023/08/04 00:55:51;;;;;;;;;;;;;;;14.26;100.00;101180.84;5073939;28;19921;-82
2023/08/04 00:58:17;;;;;;;;;;;;;;;14.22;100.00;101179.47;5077206;28;20015;-81
2023/08/04 01:00:42;;;;;;;;;;;;;;;14.19;100.00;101177.13;5077770;28;19928;-82
2023/08/04 01:03:08;;;;;;;;;;;;;;;14.17;100.00;101179.94;5077401;28;20414;-82
2023/08/04 01:05:43;;;;;;;;;;;;;;;14.16;100.00;101193.47;5077185;28;20344;-79
2023/08/04 01:08:16;;;;;;;;;;;;;;;14.14;100.00;101185.59;5077831;28;19943;-80
2023/08/04 01:10:45;;;;;;;;;;;;;;;14.14;100.00;101182.94;5077333;28;19924;-80
2023/08/04 01:13:13;;;;;;;;;;;;;;;14.13;100.00;101188.44;5077599;28;20003;-80
2023/08/04 01:15:38;;;;;;;;;;;;;;;14.13;100.00;101191.13;5077160;28;19979;-79
2023/08/04 01:18:03;;;;;;;;;;;;;;;14.13;100.00;101183.91;5059251;28;19982;-81
2023/08/04 01:20:29;;;;;;;;;;;;;;;14.16;100.00;101191.63;5077208;28;19917;-79
2023/08/04 01:22:54;;;;;;;;;;;;;;;14.18;100.00;101189.66;5077275;28;20287;-80
2023/08/04 01:25:34;;;;;;;;;;;;;;;14.20;100.00;101189.50;5076916;28;19917;-81
2023/08/04 01:28:00;;;;;;;;;;;;;;;14.21;100.00;101188.50;5077010;28;19917;-81
2023/08/04 01:30:27;;;;;;;;;;;;;;;14.20;100.00;101189.50;5077064;28;19921;-82
2023/08/04 01:32:52;;;;;;;;;;;;;;;14.20;100.00;101186.84;5077438;28;19916;-82
2023/08/04 01:35:17;;;;;;;;;;;;;;;14.19;100.00;101188.66;5076716;28;20390;-82
2023/08/04 01:37:43;;;;;;;;;;;;;;;14.19;100.00;101190.50;5077292;28;19916;-82
2023/08/04 01:40:09;;;;;;;;;;;;;;;14.17;100.00;101195.16;5077978;28;19934;-81
2023/08/04 01:42:34;;;;;;;;;;;;;;;14.13;100.00;101193.78;5077588;28;19921;-81
2023/08/04 01:45:00;;;;;;;;;;;;;;;14.08;100.00;101197.75;5077186;28;20007;-81
2023/08/04 01:47:25;;;;;;;;;;;;;;;14.04;100.00;101207.09;5077112;28;19924;-81
2023/08/04 01:49:50;;;;;;;;;;;;;;;14.01;100.00;101207.38;5077076;28;20353;-81
2023/08/04 01:52:15;;;;;;;;;;;;;;;13.98;100.00;101205.03;5076603;28;19960;-79
2023/08/04 01:54:41;;;;;;;;;;;;;;;13.95;100.00;101207.16;5076570;28;19924;-81
2023/08/04 01:57:06;;;;;;;;;;;;;;;13.90;100.00;101210.31;5076586;28;19946;-81
2023/08/04 01:59:31;;;;;;;;;;;;;;;13.86;100.00;101209.75;5058587;28;19920;-81
2023/08/04 02:01:56;;;;;;;;;;;;;;;13.79;100.00;101203.31;5076903;28;19917;-81
2023/08/04 02:04:22;;;;;;;;;;;;;;;13.73;100.00;101207.47;5076623;28;20361;-81
2023/08/04 02:06:47;;;;;;;;;;;;;;;13.70;100.00;101214.94;5075883;28;20376;-81
2023/08/04 02:09:13;;;;;;;;;;;;;;;13.69;100.00;101213.22;5057381;28;19927;-81
2023/08/04 02:11:39;;;;;;;;;;;;;;;13.66;100.00;101209.03;5075030;28;19917;-83
2023/08/04 02:14:04;;;;;;;;;;;;;;;13.68;100.00;101214.25;5057794;28;19970;-81
2023/08/04 02:16:29;;;;;;;;;;;;;;;13.71;100.00;101211.28;5075071;28;19920;-78
2023/08/04 02:19:00;;;;;;;;;;;;;;;13.74;100.00;101211.78;5074949;28;19943;-82
2023/08/04 02:21:25;;;;;;;;;;;;;;;13.78;100.00;101219.50;5075211;28;20001;-81
2023/08/04 02:23:50;;;;;;;;;;;;;;;13.79;100.00;101219.38;5074636;28;19925;-82
2023/08/04 02:26:16;;;;;;;;;;;;;;;13.82;100.00;101219.06;5074847;28;20283;-81
2023/08/04 02:28:41;;;;;;;;;;;;;;;13.85;100.00;101216.13;5074852;28;19928;-82
2023/08/04 02:31:06;;;;;;;;;;;;;;;13.87;100.00;101222.13;5075281;28;19920;-81
2023/08/04 02:33:31;;;;;;;;;;;;;;;13.91;100.00;101225.34;5075042;28;20009;-81
2023/08/04 02:36:00;;;;;;;;;;;;;;;13.95;100.00;101223.22;5074933;28;19927;-79
2023/08/04 02:38:26;;;;;;;;;;;;;;;13.93;100.00;101229.56;5074766;28;19920;-81
2023/08/04 02:40:52;;;;;;;;;;;;;;;13.91;100.00;101225.34;5074791;28;20276;-81
2023/08/04 02:43:17;;;;;;;;;;;;;;;13.90;100.00;101234.38;5056676;28;19952;-81
2023/08/04 02:45:50;;;;;;;;;;;;;;;13.89;100.00;101221.97;5074544;28;19916;-81
2023/08/04 02:48:15;;;;;;;;;;;;;;;13.91;100.00;101228.00;5074367;28;19920;-81
2023/08/04 02:50:40;;;;;;;;;;;;;;;13.96;100.00;101235.56;5074190;28;19920;-80
2023/08/04 02:53:05;;;;;;;;;;;;;;;14.02;100.00;101232.31;5074479;28;20019;-80
2023/08/04 02:55:31;;;;;;;;;;;;;;;14.07;100.00;101238.03;5074476;28;19925;-81
2023/08/04 02:57:56;;;;;;;;;;;;;;;14.08;100.00;101232.53;5074588;28;20003;-81
2023/08/04 03:00:22;;;;;;;;;;;;;;;14.11;100.00;101236.75;5074886;28;19981;-81
2023/08/04 03:02:47;;;;;;;;;;;;;;;14.14;100.00;101244.47;5074257;28;20364;-82
2023/08/04 03:05:12;;;;;;;;;;;;;;;14.15;100.00;101245.31;5056654;28;19920;-82
2023/08/04 03:07:38;;;;;;;;;;;;;;;14.14;100.00;101243.63;5011299;28;1780474;-81
2023/08/04 03:10:03;;;;;;;;;;;;;;;14.12;100.00;101246.44;5075160;28;19968;-81
2023/08/04 03:12:29;;;;;;;;;;;;;;;14.10;100.00;101249.28;5057200;28;19921;-82
2023/08/04 03:14:54;;;;;;;;;;;;;;;14.10;100.00;101243.91;5075036;28;19928;-82
2023/08/04 03:17:19;;;;;;;;;;;;;;;14.09;100.00;101238.72;5074996;28;19928;-82
2023/08/04 03:19:44;;;;;;;;;;;;;;;14.08;100.00;101239.75;5074179;28;19925;-81
2023/08/04 03:22:10;;;;;;;;;;;;;;;14.07;100.00;101238.88;5074808;28;19921;-81
2023/08/04 03:24:35;;;;;;;;;;;;;;;14.07;100.00;101243.41;5074861;28;19929;-81
2023/08/04 03:27:00;;;;;;;;;;;;;;;14.06;100.00;101247.91;5074849;28;19924;-81
2023/08/04 03:29:25;;;;;;;;;;;;;;;14.08;100.00;101247.75;5074782;28;19920;-81
2023/08/04 03:31:51;;;;;;;;;;;;;;;14.08;100.00;101248.59;5074713;28;19943;-82
2023/08/04 03:34:16;;;;;;;;;;;;;;;14.07;100.00;101246.91;5075195;28;19921;-81
2023/08/04 03:36:41;;;;;;;;;;;;;;;14.08;100.00;101251.28;5074982;28;20008;-81
2023/08/04 03:39:06;;;;;;;;;;;;;;;14.07;100.00;101257.59;5057320;28;20007;-81
2023/08/04 03:41:31;;;;;;;;;;;;;;;14.06;100.00;101255.94;5074221;28;19920;-81
2023/08/04 03:43:57;;;;;;;;;;;;;;;14.07;100.00;101259.44;5074433;28;19920;-81
2023/08/04 03:46:22;;;;;;;;;;;;;;;14.08;100.00;101263.81;5074687;28;20396;-81
2023/08/04 03:48:47;;;;;;;;;;;;;;;14.08;100.00;101267.31;5056286;28;20011;-80
2023/08/04 03:51:13;;;;;;;;;;;;;;;14.12;100.00;101270.53;5074313;28;20020;-81
2023/08/04 03:53:38;;;;;;;;;;;;;;;14.14;100.00;101271.25;5074919;28;19959;-81
2023/08/04 03:56:03;;;;;;;;;;;;;;;14.16;100.00;101271.09;5074291;28;19999;-81
2023/08/04 03:58:29;;;;;;;;;;;;;;;14.15;100.00;101267.53;5074504;28;19928;-80
2023/08/04 04:00:54;;;;;;;;;;;;;;;14.13;100.00;101271.38;5074180;28;19928;-82
2023/08/04 04:03:19;;;;;;;;;;;;;;;14.11;100.00;101269.69;5073834;28;19920;-81
2023/08/04 04:05:44;;;;;;;;;;;;;;;14.12;100.00;101275.88;5074081;28;20435;-80
2023/08/04 04:08:10;;;;;;;;;;;;;;;14.13;100.00;101274.06;5055720;28;19925;-81
2023/08/04 04:10:35;;;;;;;;;;;;;;;14.14;100.00;101281.06;5073733;28;19928;-80
2023/08/04 04:13:00;;;;;;;;;;;;;;;14.16;100.00;101284.47;5056164;28;19925;-81
2023/08/04 04:15:25;;;;;;;;;;;;;;;14.16;100.00;101285.28;5074197;28;20361;-81
2023/08/04 04:17:51;;;;;;;;;;;;;;;14.19;100.00;101281.47;5074098;28;20410;-81
2023/08/04 04:20:16;;;;;;;;;;;;;;;14.20;100.00;101277.81;5074314;28;19920;-80
2023/08/04 04:22:41;;;;;;;;;;;;;;;14.22;100.00;101281.19;5074400;28;20035;-80
2023/08/04 04:25:06;;;;;;;;;;;;;;;14.24;100.00;101285.38;5073849;28;19921;-81
2023/08/04 04:27:32;;;;;;;;;;;;;;;14.27;100.00;101294.94;5073567;28;19920;-81
2023/08/04 04:29:57;;;;;;;;;;;;;;;14.29;100.00;101292.97;5073764;28;19920;-81
2023/08/04 04:32:22;;;;;;;;;;;;;;;14.34;100.00;101298.69;5073673;28;19921;-81
2023/08/04 04:34:48;;;;;;;;;;;;;;;14.31;100.00;101299.00;5073764;28;20011;-82
2023/08/04 04:37:13;;;;;;;;;;;;;;;14.25;100.00;101308.47;5073736;28;19917;-85
2023/08/04 04:39:38;;;;;;;;;;;;;;;14.19;100.00;101302.88;5073729;28;20292;-81
2023/08/04 04:42:05;;;;;;;;;;;;;;;14.13;100.00;101312.34;5073675;28;19960;-82
2023/08/04 04:44:30;;;;;;;;;;;;;;;14.10;100.00;101305.47;5073690;28;19966;-82
2023/08/04 04:46:55;;;;;;;;;;;;;;;14.07;100.00;101319.16;5073787;28;20304;-80
2023/08/04 04:49:21;;;;;;;;;;;;;;;14.07;100.00;101323.66;5073963;28;20330;-82
2023/08/04 04:51:46;;;;;;;;;;;;;;;14.07;100.00;101311.13;5073391;28;19921;-81
2023/08/04 04:54:11;;;;;;;;;;;;;;;14.06;100.00;101320.16;5055558;28;19921;-83
2023/08/04 04:56:37;;;;;;;;;;;;;;;14.05;100.00;101326.50;5073354;28;20287;-81
2023/08/04 04:59:03;;;;;;;;;;;;;;;14.06;100.00;101330.00;5073443;28;19990;-82
2023/08/04 05:01:28;;;;;;;;;;;;;;;14.07;100.00;101332.53;5073596;28;19946;-82
2023/08/04 05:03:53;;;;;;;;;;;;;;;14.08;100.00;101336.06;5073685;28;20280;-82
2023/08/04 05:06:18;;;;;;;;;;;;;;;14.09;100.00;101332.38;5073745;28;20252;-82
2023/08/04 05:08:44;;;;;;;;;;;;;;;14.09;100.00;101340.41;5073853;28;19920;-82
2023/08/04 05:11:09;;;;;;;;;;;;;;;14.10;100.00;101340.25;5073957;28;19939;-81
2023/08/04 05:13:34;;;;;;;;;;;;;;;14.12;100.00;101340.09;5055656;28;19924;-81
2023/08/04 05:15:59;;;;;;;;;;;;;;;14.14;100.00;101350.66;5073804;28;19963;-81
2023/08/04 05:18:25;;;;;;;;;;;;;;;14.14;100.00;101351.50;5073467;28;20411;-81
2023/08/04 05:20:50;;;;;;;;;;;;;;;14.14;100.00;101350.66;5074377;28;19917;-82
2023/08/04 05:23:16;;;;;;;;;;;;;;;14.13;100.00;101362.38;5073275;28;19925;-82
2023/08/04 05:25:41;;;;;;;;;;;;;;;14.11;100.00;101358.00;5073442;28;20049;-83
2023/08/04 05:28:21;;;;;;;;;;;;;;;14.10;100.00;101360.81;5073332;28;20326;-82
2023/08/04 05:30:46;;;;;;;;;;;;;;;14.11;100.00;101360.66;5073356;28;20007;-82
2023/08/04 05:33:11;;;;;;;;;;;;;;;14.13;100.00;101357.84;5073544;28;20403;-82
2023/08/04 05:35:38;;;;;;;;;;;;;;;14.17;100.00;101366.44;5079170;28;19974;-82
2023/08/04 05:38:04;;;;;;;;;;;;;;;14.20;100.00;101369.63;5081173;28;19927;-81
2023/08/04 05:40:29;;;;;;;;;;;;;;;14.22;100.00;101369.50;5078023;28;19916;-82
2023/08/04 05:42:54;;;;;;;;;;;;;;;14.23;100.00;101368.50;5077856;28;20073;-81
2023/08/04 05:45:20;;;;;;;;;;;;;;;14.24;100.00;101375.53;5061455;28;20268;-81
2023/08/04 05:47:45;;;;;;;;;;;;;;;14.28;100.00;101372.41;5060511;28;19924;-83
2023/08/04 05:50:10;;;;;;;;;;;;;;;14.33;100.00;101380.00;5077040;28;19921;-82
2023/08/04 05:52:36;;;;;;;;;;;;;;;14.38;100.00;101375.03;5076445;28;19932;-82
2023/08/04 05:55:01;;;;;;;;;;;;;;;14.40;100.00;101373.03;5077363;28;19931;-82
2023/08/04 05:57:26;;;;;;;;;;;;;;;14.46;100.00;101374.25;5076352;28;19916;-82
2023/08/04 05:59:51;;;;;;;;;;;;;;;14.51;100.00;101374.66;5076277;28;19927;-82
2023/08/04 06:02:17;;;;;;;;;;;;;;;14.56;100.00;101376.88;5076540;28;19931;-82
2023/08/04 06:04:42;;;;;;;;;;;;;;;14.65;100.00;101385.88;5076567;28;19916;-81
2023/08/04 06:07:07;;;;;;;;;;;;;;;14.70;100.00;101388.94;5076048;28;19924;-83
2023/08/04 06:09:33;;;;;;;;;;;;;;;14.78;100.00;101392.53;5076629;28;19920;-83
2023/08/04 06:11:58;;;;;;;;;;;;;;;14.88;100.00;101395.09;5076267;28;19920;-81
2023/08/04 06:14:23;;;;;;;;;;;;;;;14.97;100.00;101401.38;5076462;28;19999;-84
2023/08/04 06:16:48;;;;;;;;;;;;;;;15.06;100.00;101399.63;5076185;28;19924;-81
2023/08/04 06:19:14;;;;;;;;;;;;;;;15.18;100.00;101395.69;5057991;28;20368;-82
2023/08/04 06:21:39;;;;;;;;;;;;;;;15.29;100.00;101394.63;5075942;28;19948;-82
2023/08/04 06:24:04;;;;;;;;;;;;;;;15.41;100.00;101395.22;5058154;28;20323;-82
2023/08/04 06:26:29;;;;;;;;;;;;;;;15.55;100.00;101394.59;5076381;28;19927;-81
2023/08/04 06:28:55;;;;;;;;;;;;;;;15.80;100.00;101400.16;5075898;28;20391;-83
2023/08/04 06:31:20;;;;;;;;;;;;;;;16.04;100.00;101399.44;5075613;28;20109;-82
2023/08/04 06:33:45;;;;;;;;;;;;;;;16.29;100.00;101399.53;5075525;28;19924;-81
2023/08/04 06:36:10;;;;;;;;;;;;;;;16.50;100.00;101405.28;5075827;28;19920;-83
2023/08/04 06:38:36;;;;;;;;;;;;;;;16.51;100.00;101409.66;5075515;28;19921;-83
2023/08/04 06:41:01;;;;;;;;;;;;;;;16.40;100.00;101418.00;5076245;28;19932;-83
2023/08/04 06:43:26;;;;;;;;;;;;;;;16.22;100.00;101418.94;5075525;28;20292;-85
2023/08/04 06:45:51;;;;;;;;;;;;;;;16.03;100.00;101425.44;5075714;28;19923;-84
2023/08/04 06:48:17;;;;;;;;;;;;;;;15.91;100.00;101417.81;5057912;28;19928;-82
2023/08/04 06:50:42;;;;;;;;;;;;;;;15.83;100.00;101427.50;5076115;28;19920;-80
2023/08/04 06:53:07;;;;;;;;;;;;;;;15.83;100.00;101438.22;5075909;28;20341;-82
2023/08/04 06:55:33;;;;;;;;;;;;;;;15.77;100.00;101432.66;5056773;28;19928;-81
2023/08/04 06:57:59;;;;;;;;;;;;;;;15.74;100.00;101431.13;5057220;28;19926;-80
2023/08/04 07:00:24;;;;;;;;;;;;;;;15.75;100.00;101437.31;5057238;28;20023;-80
2023/08/04 07:02:49;;;;;;;;;;;;;;;15.78;100.00;101442.38;5075530;28;19966;-80
2023/08/04 07:05:15;;;;;;;;;;;;;;;15.84;100.00;101439.94;5075194;28;20291;-79
2023/08/04 07:07:40;;;;;;;;;;;;;;;15.81;100.00;101448.28;5074752;28;19943;-76
2023/08/04 07:10:06;;;;;;;;;;;;;;;15.82;100.00;101443.75;5075106;28;19950;-76
2023/08/04 07:12:31;;;;;;;;;;;;;;;15.83;100.00;101448.97;5074421;28;19916;-76
2023/08/04 07:14:56;;;;;;;;;;;;;;;15.89;100.00;101455.53;5074628;28;20065;-76
2023/08/04 07:17:22;;;;;;;;;;;;;;;15.96;100.00;101458.41;5056822;28;19919;-76
2023/08/04 07:19:48;;;;;;;;;;;;;;;15.95;100.00;101457.59;5056690;28;19928;-75
2023/08/04 07:22:13;;;;;;;;;;;;;;;15.95;100.00;101454.06;5074824;28;19928;-76
2023/08/04 07:24:39;;;;;;;;;;;;;;;16.06;100.00;101458.31;5074639;28;19916;-76
2023/08/04 07:27:05;;;;;;;;;;;;;;;16.20;100.00;101458.56;5074431;28;19920;-75
2023/08/04 07:29:33;;;;;;;;;;;;;;;16.33;100.00;101463.47;5074232;28;19921;-76
2023/08/04 07:31:58;;;;;;;;;;;;;;;16.49;100.00;101462.69;5074729;28;19921;-76
2023/08/04 07:34:23;;;;;;;;;;;;;;;16.80;100.00;101456.72;5056325;28;19928;-78
2023/08/04 07:36:49;;;;;;;;;;;;;;;17.10;100.00;101460.66;5074200;28;20265;-78
2023/08/04 07:39:14;;;;;;;;;;;;;;;17.24;100.00;101466.38;5074756;28;19920;-81
2023/08/04 07:41:40;;;;;;;;;;;;;;;17.24;100.00;101466.38;5074003;28;20011;-78
2023/08/04 07:44:05;;;;;;;;;;;;;;;17.17;100.00;101471.59;5074312;28;20398;-82
2023/08/04 07:46:30;;;;;;;;;;;;;;;17.11;100.00;101477.66;5056305;28;19927;-77
2023/08/04 07:48:56;;;;;;;;;;;;;;;16.99;100.00;101482.50;5074089;28;19999;-76
2023/08/04 07:51:22;;;;;;;;;;;;;;;17.02;100.00;101479.47;5073827;28;20022;-76
2023/08/04 07:53:47;;;;;;;;;;;;;;;17.06;100.00;101485.34;5074283;28;20282;-77
2023/08/04 07:56:13;;;;;;;;;;;;;;;17.19;100.00;101485.69;5073859;28;19920;-78
2023/08/04 07:58:38;;;;;;;;;;;;;;;17.24;100.00;101483.38;5073773;28;19924;-76
2023/08/04 08:01:04;;;;;;;;;;;;;;;17.28;100.00;101494.63;5055547;28;19932;-78
2023/08/04 08:03:29;;;;;;;;;;;;;;;17.13;100.00;101486.38;5073720;28;19927;-77
2023/08/04 08:05:55;;;;;;;;;;;;;;;17.09;100.00;101493.09;5073319;28;19921;-76
2023/08/04 08:08:20;;;;;;;;;;;;;;;17.02;100.00;101497.47;5073812;28;20316;-77
2023/08/04 08:10:45;;;;;;;;;;;;;;;16.97;100.00;101491.72;5073762;28;20279;-79
2023/08/04 08:13:10;;;;;;;;;;;;;;;17.06;100.00;101490.72;5073701;28;19967;-78
2023/08/04 08:15:36;;;;;;;;;;;;;;;17.27;100.00;101504.53;5073186;28;19916;-78
2023/08/04 08:18:01;;;;;;;;;;;;;;;17.35;100.00;101497.50;5073558;28;19925;-78
2023/08/04 08:20:27;;;;;;;;;;;;;;;17.33;100.00;101504.88;5073954;28;19921;-82
2023/08/04 08:22:52;;;;;;;;;;;;;;;17.41;100.00;101505.72;5073244;28;20038;-79
2023/08/04 08:25:18;;;;;;;;;;;;;;;17.56;100.00;101510.44;5073550;28;19964;-81
2023/08/04 08:27:43;;;;;;;;;;;;;;;17.67;100.00;101507.38;5073880;28;20007;-79
2023/08/04 08:30:08;;;;;;;;;;;;;;;17.68;100.00;101506.38;5055674;28;19921;-78
2023/08/04 08:32:33;;;;;;;;;;;;;;;17.83;100.00;101508.38;5074098;28;19927;-79
2023/08/04 08:34:59;;;;;;;;;;;;;;;18.09;100.00;101521.66;5073393;28;19931;-79
2023/08/04 08:37:24;;;;;;;;;;;;;;;18.13;100.00;101520.28;5073115;28;19923;-80
2023/08/04 08:39:49;;;;;;;;;;;;;;;18.11;100.00;101520.47;5073173;28;19921;-78
2023/08/04 08:42:14;;;;;;;;;;;;;;;18.22;100.00;101510.34;5073067;28;20008;-77
2023/08/04 08:44:39;;;;;;;;;;;;;;;18.43;100.00;101532.13;5073498;28;19982;-75
2023/08/04 08:47:05;;;;;;;;;;;;;;;18.61;100.00;101523.81;5073041;28;19928;-74
2023/08/04 08:49:32;;;;;;;;;;;;;;;18.80;100.00;101527.09;5073936;28;19917;-80
2023/08/04 08:51:58;;;;;;;;;;;;;;;18.82;100.00;101528.63;5073190;28;19916;-78
2023/08/04 08:54:23;;;;;;;;;;;;;;;18.70;100.00;101532.69;5073229;28;19917;-77
2023/08/04 08:56:52;;;;;;;;;;;;;;;18.41;100.00;101527.97;5073132;28;20426;-78
2023/08/04 08:59:17;;;;;;;;;;;;;;;18.40;100.00;101537.88;5073109;28;19925;-77
2023/08/04 09:01:43;;;;;;;;;;;;;;;18.76;100.00;101534.69;5073077;28;20012;-80
2023/08/04 09:04:08;;;;;;;;;;;;;;;19.17;100.00;101531.78;5072782;28;20027;-79
2023/08/04 09:06:33;;;;;;;;;;;;;;;19.25;100.00;101543.56;5055539;28;19943;-81
2023/08/04 09:09:01;;;;;;;;;;;;;;;19.41;100.00;101546.13;5072791;28;20419;-76
2023/08/04 09:11:29;;;;;;;;;;;;;;;19.36;100.00;101546.69;5073018;28;19976;-78
2023/08/04 09:13:55;;;;;;;;;;;;;;;19.26;100.00;101546.06;5072712;28;20368;-78
2023/08/04 09:16:31;;;;;;;;;;;;;;;19.33;100.00;101549.72;5073041;28;19927;-76
2023/08/04 09:19:00;;;;;;;;;;;;;;;19.49;100.00;101550.63;5074910;28;19978;-77
2023/08/04 09:21:25;;;;;;;;;;;;;;;19.76;100.00;101559.16;5076698;28;19917;-76
2023/08/04 09:23:52;;;;;;;;;;;;;;;19.81;100.00;101557.63;5058653;28;20011;-77
2023/08/04 09:26:17;;;;;;;;;;;;;;;19.79;100.00;101565.06;5076799;28;19923;-74
2023/08/04 09:28:43;;;;;;;;;;;;;;;19.77;100.00;101559.00;5077146;28;20352;-74
2023/08/04 09:31:09;;;;;;;;;;;;;;;19.74;100.00;101562.06;5076582;28;19916;-74
2023/08/04 09:33:37;;;;;;;;;;;;;;;19.72;100.00;101569.47;5076335;28;20292;-74
2023/08/04 09:36:06;;;;;;;;;;;;;;;19.61;100.00;101551.84;5058831;28;19923;-73
2023/08/04 09:38:32;;;;;;;;;;;;;;;19.71;100.00;101563.25;5076877;28;19920;-73
2023/08/04 09:41:15;;;;;;;;;;;;;;;19.98;100.00;101563.72;5076676;28;19962;-74
2023/08/04 09:43:44;;;;;;;;;;;;;;;20.14;100.00;101561.88;5076868;28;19939;-73
2023/08/04 09:46:09;;;;;;;;;;;;;;;20.54;100.00;101554.31;5077024;28;19917;-73
2023/08/04 09:48:35;;;;;;;;;;;;;;;20.72;100.00;101560.22;5076683;28;19924;-72
2023/08/04 09:51:21;;;;;;;;;;;;;;;20.66;100.00;101565.53;5076512;28;19921;-73
2023/08/04 09:53:48;;;;;;;;;;;;;;;21.09;100.00;101562.91;5076813;28;19928;-74
2023/08/04 09:56:14;;;;;;;;;;;;;;;21.24;100.00;101561.03;5076503;28;20015;-79
2023/08/04 09:58:41;;;;;;;;;;;;;;;21.51;100.00;101564.00;5076411;28;19924;-83
2023/08/04 10:01:06;;;;;;;;;;;;;;;21.60;100.00;101570.97;5076344;28;19920;-75
2023/08/04 10:03:36;;;;;;;;;;;;;;;21.75;100.00;101576.31;5076412;28;19916;-75
2023/08/04 10:06:04;;;;;;;;;;;;;;;21.70;100.00;101578.75;5076552;28;19987;-75
2023/08/04 10:08:31;;;;;;;;;;;;;;;21.40;100.00;101581.56;5057855;28;19960;-75
2023/08/04 10:10:56;;;;;;;;;;;;;;;21.44;100.00;101584.75;5075933;28;20284;-75
2023/08/04 10:13:22;;;;;;;;;;;;;;;21.12;100.00;101576.91;5076236;28;19922;-75
2023/08/04 10:15:48;;;;;;;;;;;;;;;21.18;100.00;101574.47;5076116;28;19921;-75
2023/08/04 10:18:13;;;;;;;;;;;;;;;21.11;100.00;101575.22;5058138;28;19920;-75
2023/08/04 10:20:38;;;;;;;;;;;;;;;21.00;100.00;101589.25;5075996;28;19916;-74
2023/08/04 10:23:04;;;;;;;;;;;;;;;20.70;100.00;101588.47;5075943;28;20359;-75
2023/08/04 10:25:29;;;;;;;;;;;;;;;20.58;100.00;101591.59;5075833;28;20450;-75
2023/08/04 10:27:54;;;;;;;;;;;;;;;20.48;100.00;101587.50;5075547;28;19927;-75
2023/08/04 10:30:20;;;;;;;;;;;;;;;20.73;100.00;101588.09;5057750;28;19964;-74
2023/08/04 10:32:46;;;;;;;;;;;;;;;20.99;100.00;101595.72;5075492;28;19970;-75
2023/08/04 10:35:19;;;;;;;;;;;;;;;21.04;100.00;101595.13;5075767;28;19920;-75
2023/08/04 10:37:49;;;;;;;;;;;;;;;21.33;100.00;101596.88;5075590;28;19970;-75
2023/08/04 10:40:26;;;;;;;;;;;;;;;21.43;100.00;101594.72;5075672;28;19959;-75
2023/08/04 10:42:58;;;;;;;;;;;;;;;21.91;100.00;101596.84;5075893;28;20303;-76
2023/08/04 10:45:23;;;;;;;;;;;;;;;22.43;100.00;101594.72;5075392;28;19960;-76
2023/08/04 10:47:52;;;;;;;;;;;;;;;22.28;100.00;101592.09;5075555;28;20355;-86
2023/08/04 10:50:17;;;;;;;;;;;;;;;21.86;100.00;101604.72;5075162;28;19927;-75
2023/08/04 10:52:43;;;;;;;;;;;;;;;21.40;100.00;101596.97;5075637;28;19920;-76
2023/08/04 10:55:12;;;;;;;;;;;;;;;21.27;100.00;101601.22;5075352;28;20449;-76
2023/08/04 10:57:38;;;;;;;;;;;;;;;21.42;100.00;101594.91;5075711;28;19916;-75
2023/08/04 11:00:05;;;;;;;;;;;;;;;21.66;100.00;101599.13;5057267;28;19924;-75
2023/08/04 11:02:31;;;;;;;;;;;;;;;21.58;100.00;101600.09;5041499;28;20272;-78
2023/08/04 11:04:56;;;;;;;;;;;;;;;21.79;100.00;101607.38;5075199;28;19931;-76
2023/08/04 11:07:22;;;;;;;;;;;;;;;22.80;100.00;101610.78;5074974;28;19916;-76
2023/08/04 11:09:48;;;;;;;;;;;;;;;23.49;100.00;101606.22;5057362;28;19924;-76
2023/08/04 11:12:14;;;;;;;;;;;;;;;23.49;100.00;101609.78;5075635;28;19923;-75
2023/08/04 11:14:39;;;;;;;;;;;;;;;23.18;100.00;101610.31;5075515;28;19917;-76
2023/08/04 11:17:12;;;;;;;;;;;;;;;22.99;100.00;101617.31;5057818;28;19916;-75
2023/08/04 11:19:37;;;;;;;;;;;;;;;23.61;100.00;101615.44;5074840;28;19916;-75
2023/08/04 11:22:06;;;;;;;;;;;;;;;23.62;97.35;101618.97;5056999;28;20281;-77
2023/08/04 11:24:31;;;;;;;;;;;;;;;23.46;93.42;101622.94;5074930;28;19916;-76
2023/08/04 11:26:57;;;;;;;;;;;;;;;23.05;100.00;101619.25;5074375;28;20376;-76
2023/08/04 11:29:24;;;;;;;;;;;;;;;22.92;100.00;101624.63;5075287;28;19920;-77
2023/08/04 11:31:50;;;;;;;;;;;;;;;22.53;100.00;101635.88;5074516;28;19916;-77
2023/08/04 11:34:16;;;;;;;;;;;;;;;22.21;100.00;101633.75;5074580;28;20418;-77
2023/08/04 11:36:41;;;;;;;;;;;;;;;21.99;100.00;101642.75;5074570;28;19920;-77
2023/08/04 11:39:07;;;;;;;;;;;;;;;21.82;100.00;101650.31;5074331;28;20349;-76
2023/08/04 11:41:32;;;;;;;;;;;;;;;21.76;100.00;101639.44;5074107;28;20412;-75
2023/08/04 11:44:00;;;;;;;;;;;;;;;21.56;100.00;101645.50;5074399;28;20006;-75
2023/08/04 11:46:29;;;;;;;;;;;;;;;21.54;100.00;101646.69;5056509;28;19921;-78
2023/08/04 11:48:55;;;;;;;;;;;;;;;21.57;100.00;101646.31;5056654;28;19989;-77
2023/08/04 11:51:20;;;;;;;;;;;;;;;21.62;100.00;101652.84;5074219;28;19920;-77
2023/08/04 11:53:46;;;;;;;;;;;;;;;21.57;100.00;101655.28;5075000;28;19924;-74
2023/08/04 11:56:11;;;;;;;;;;;;;;;21.59;100.00;101649.69;5074154;28;20000;-76
2023/08/04 11:58:39;;;;;;;;;;;;;;;21.94;100.00;101644.38;5074278;28;19916;-76
2023/08/04 12:01:05;;;;;;;;;;;;;;;21.53;100.00;101648.59;5073967;28;19917;-75
2023/08/04 12:03:44;;;;;;;;;;;;;;;21.83;100.00;101652.00;5074071;28;20007;-77
2023/08/04 12:06:13;;;;;;;;;;;;;;;22.27;100.00;101662.78;5074030;28;19916;-77
2023/08/04 12:08:38;;;;;;;;;;;;;;;21.96;100.00;101658.56;5074037;28;19947;-77
2023/08/04 12:11:04;;;;;;;;;;;;;;;22.36;100.00;101650.78;5055917;28;19939;-76
2023/08/04 12:13:33;;;;;;;;;;;;;;;23.31;100.00;101653.81;5074098;28;19920;-77
2023/08/04 12:15:58;;;;;;;;;;;;;;;22.98;97.69;101661.78;5073884;28;20390;-75
2023/08/04 12:18:24;;;;;;;;;;;;;;;22.60;100.00;101664.91;5056011;28;20003;-73
2023/08/04 12:20:49;;;;;;;;;;;;;;;22.60;92.79;101660.34;5074080;28;19928;-74